sensor_id;sensor_type;location;lat;lon;timestamp;P1;durP1;ratioP1;P2;durP2;ratioP2
2462;SDS011;1243;54.298;10.172;2023-03-01T00:01:28;20.60;;;12.80;;
2462;SDS011;1243;54.298;10.172;2023-03-01T00:03:55;16.93;;;12.20;;
2462;SDS011;1243;54.298;10.172;2023-03-01T00:06:22;22.93;;;12.87;;
2462;SDS011;1243;54.298;10.172;2023-03-01T00:08:49;17.27;;;11.47;;
2462;SDS011;1243;54.298;10.172;2023-03-01T00:13:46;19.33;;;13.23;;
2462;SDS011;1243;54.298;10.172;2023-03-01T00:16:19;16.17;;;12.80;;
2462;SDS011;1243;54.298;10.172;2023-03-01T00:18:46;18.10;;;12.20;;
2462;SDS011;1243;54.298;10.172;2023-03-01T00:21:12;20.40;;;13.30;;
2462;SDS011;1243;54.298;10.172;2023-03-01T00:23:38;24.83;;;13.40;;
2462;SDS011;1243;54.298;10.172;2023-03-01T00:26:06;15.90;;;12.40;;
2462;SDS011;1243;54.298;10.172;2023-03-01T00:28:36;22.77;;;13.40;;
2462;SDS011;1243;54.298;10.172;2023-03-01T00:31:05;25.03;;;14.37;;
2462;SDS011;1243;54.298;10.172;2023-03-01T00:33:33;16.43;;;12.17;;
2462;SDS011;1243;54.298;10.172;2023-03-01T00:35:59;19.57;;;12.77;;
2462;SDS011;1243;54.298;10.172;2023-03-01T00:38:25;20.57;;;14.27;;
2462;SDS011;1243;54.298;10.172;2023-03-01T00:40:51;19.97;;;13.17;;
2462;SDS011;1243;54.298;10.172;2023-03-01T00:43:17;22.17;;;13.50;;
2462;SDS011;1243;54.298;10.172;2023-03-01T00:45:43;19.60;;;13.63;;
2462;SDS011;1243;54.298;10.172;2023-03-01T00:48:09;25.13;;;13.60;;
2462;SDS011;1243;54.298;10.172;2023-03-01T00:50:34;25.70;;;14.40;;
2462;SDS011;1243;54.298;10.172;2023-03-01T00:53:00;22.37;;;14.87;;
2462;SDS011;1243;54.298;10.172;2023-03-01T00:55:26;21.57;;;13.23;;
2462;SDS011;1243;54.298;10.172;2023-03-01T00:57:51;19.27;;;14.73;;
2462;SDS011;1243;54.298;10.172;2023-03-01T01:00:17;30.17;;;15.60;;
2462;SDS011;1243;54.298;10.172;2023-03-01T01:02:44;26.83;;;17.10;;
2462;SDS011;1243;54.298;10.172;2023-03-01T01:05:10;28.63;;;17.00;;
2462;SDS011;1243;54.298;10.172;2023-03-01T01:07:36;31.50;;;17.53;;
2462;SDS011;1243;54.298;10.172;2023-03-01T01:10:02;25.90;;;17.13;;
2462;SDS011;1243;54.298;10.172;2023-03-01T01:12:28;30.60;;;15.47;;
2462;SDS011;1243;54.298;10.172;2023-03-01T01:14:54;33.20;;;18.60;;
2462;SDS011;1243;54.298;10.172;2023-03-01T01:17:20;21.83;;;15.60;;
2462;SDS011;1243;54.298;10.172;2023-03-01T01:19:45;37.60;;;15.67;;
2462;SDS011;1243;54.298;10.172;2023-03-01T01:22:11;28.27;;;15.97;;
2462;SDS011;1243;54.298;10.172;2023-03-01T01:24:37;23.23;;;12.83;;
2462;SDS011;1243;54.298;10.172;2023-03-01T01:27:02;26.53;;;14.57;;
2462;SDS011;1243;54.298;10.172;2023-03-01T01:29:28;22.30;;;13.03;;
2462;SDS011;1243;54.298;10.172;2023-03-01T01:31:54;18.50;;;13.40;;
2462;SDS011;1243;54.298;10.172;2023-03-01T01:34:20;26.10;;;16.57;;
2462;SDS011;1243;54.298;10.172;2023-03-01T01:36:48;21.47;;;14.27;;
2462;SDS011;1243;54.298;10.172;2023-03-01T01:39:14;18.70;;;13.87;;
2462;SDS011;1243;54.298;10.172;2023-03-01T01:41:41;16.37;;;12.10;;
2462;SDS011;1243;54.298;10.172;2023-03-01T01:46:44;23.43;;;13.47;;
2462;SDS011;1243;54.298;10.172;2023-03-01T01:51:56;16.35;;;13.63;;
2462;SDS011;1243;54.298;10.172;2023-03-01T01:54:38;19.60;;;13.57;;
2462;SDS011;1243;54.298;10.172;2023-03-01T01:57:07;22.73;;;12.90;;
2462;SDS011;1243;54.298;10.172;2023-03-01T01:59:37;21.10;;;12.98;;
2462;SDS011;1243;54.298;10.172;2023-03-01T02:02:05;26.85;;;13.02;;
2462;SDS011;1243;54.298;10.172;2023-03-01T02:04:31;19.93;;;12.07;;
2462;SDS011;1243;54.298;10.172;2023-03-01T02:06:59;21.35;;;13.18;;
2462;SDS011;1243;54.298;10.172;2023-03-01T02:09:29;21.07;;;12.43;;
2462;SDS011;1243;54.298;10.172;2023-03-01T02:11:56;14.57;;;10.67;;
2462;SDS011;1243;54.298;10.172;2023-03-01T02:14:22;17.80;;;10.85;;
2462;SDS011;1243;54.298;10.172;2023-03-01T02:16:48;19.17;;;9.67;;
2462;SDS011;1243;54.298;10.172;2023-03-01T02:19:18;18.73;;;10.70;;
2462;SDS011;1243;54.298;10.172;2023-03-01T02:22:07;16.33;;;9.85;;
2462;SDS011;1243;54.298;10.172;2023-03-01T02:27:18;20.10;;;10.88;;
2462;SDS011;1243;54.298;10.172;2023-03-01T02:29:49;19.15;;;10.30;;
2462;SDS011;1243;54.298;10.172;2023-03-01T02:32:15;23.30;;;11.10;;
2462;SDS011;1243;54.298;10.172;2023-03-01T02:34:50;13.18;;;9.18;;
2462;SDS011;1243;54.298;10.172;2023-03-01T02:37:20;15.97;;;11.47;;
2462;SDS011;1243;54.298;10.172;2023-03-01T02:39:49;14.45;;;9.32;;
2462;SDS011;1243;54.298;10.172;2023-03-01T02:42:23;19.40;;;11.10;;
2462;SDS011;1243;54.298;10.172;2023-03-01T02:44:54;17.27;;;9.82;;
2462;SDS011;1243;54.298;10.172;2023-03-01T02:47:20;39.20;;;11.97;;
2462;SDS011;1243;54.298;10.172;2023-03-01T02:49:45;13.97;;;9.87;;
2462;SDS011;1243;54.298;10.172;2023-03-01T02:52:21;16.53;;;9.43;;
2462;SDS011;1243;54.298;10.172;2023-03-01T02:54:56;15.40;;;10.70;;
2462;SDS011;1243;54.298;10.172;2023-03-01T02:57:34;21.88;;;9.75;;
2462;SDS011;1243;54.298;10.172;2023-03-01T03:00:05;23.73;;;9.10;;
2462;SDS011;1243;54.298;10.172;2023-03-01T03:02:44;25.93;;;10.60;;
2462;SDS011;1243;54.298;10.172;2023-03-01T03:05:13;20.53;;;10.03;;
2462;SDS011;1243;54.298;10.172;2023-03-01T03:07:42;12.60;;;9.43;;
2462;SDS011;1243;54.298;10.172;2023-03-01T03:10:13;31.15;;;10.25;;
2462;SDS011;1243;54.298;10.172;2023-03-01T03:12:41;17.03;;;9.80;;
2462;SDS011;1243;54.298;10.172;2023-03-01T03:15:08;14.63;;;9.00;;
2462;SDS011;1243;54.298;10.172;2023-03-01T03:17:37;24.90;;;10.40;;
2462;SDS011;1243;54.298;10.172;2023-03-01T03:20:05;11.33;;;9.80;;
2462;SDS011;1243;54.298;10.172;2023-03-01T03:22:36;23.35;;;10.45;;
2462;SDS011;1243;54.298;10.172;2023-03-01T03:25:09;13.60;;;10.20;;
2462;SDS011;1243;54.298;10.172;2023-03-01T03:27:36;22.05;;;9.75;;
2462;SDS011;1243;54.298;10.172;2023-03-01T03:30:03;17.00;;;10.30;;
2462;SDS011;1243;54.298;10.172;2023-03-01T03:32:34;19.80;;;10.10;;
2462;SDS011;1243;54.298;10.172;2023-03-01T03:35:04;20.37;;;9.87;;
2462;SDS011;1243;54.298;10.172;2023-03-01T03:37:37;17.17;;;9.82;;
2462;SDS011;1243;54.298;10.172;2023-03-01T03:40:22;20.20;;;10.75;;
2462;SDS011;1243;54.298;10.172;2023-03-01T03:42:48;20.93;;;9.47;;
2462;SDS011;1243;54.298;10.172;2023-03-01T03:45:14;15.70;;;10.13;;
2462;SDS011;1243;54.298;10.172;2023-03-01T03:47:41;16.52;;;9.85;;
2462;SDS011;1243;54.298;10.172;2023-03-01T03:50:07;18.13;;;8.73;;
2462;SDS011;1243;54.298;10.172;2023-03-01T03:52:34;25.88;;;9.23;;
2462;SDS011;1243;54.298;10.172;2023-03-01T03:55:00;31.27;;;8.00;;
2462;SDS011;1243;54.298;10.172;2023-03-01T03:57:25;21.40;;;10.17;;
2462;SDS011;1243;54.298;10.172;2023-03-01T03:59:51;15.83;;;9.00;;
2462;SDS011;1243;54.298;10.172;2023-03-01T04:02:17;15.37;;;10.47;;
2462;SDS011;1243;54.298;10.172;2023-03-01T04:04:47;17.58;;;8.88;;
2462;SDS011;1243;54.298;10.172;2023-03-01T04:07:17;16.58;;;7.93;;
2462;SDS011;1243;54.298;10.172;2023-03-01T04:09:43;14.83;;;9.90;;
2462;SDS011;1243;54.298;10.172;2023-03-01T04:12:09;18.85;;;9.18;;
2462;SDS011;1243;54.298;10.172;2023-03-01T04:14:35;21.60;;;10.10;;
2462;SDS011;1243;54.298;10.172;2023-03-01T04:17:01;19.33;;;9.90;;
2462;SDS011;1243;54.298;10.172;2023-03-01T04:19:30;10.05;;;8.98;;
2462;SDS011;1243;54.298;10.172;2023-03-01T04:22:01;13.15;;;8.80;;
2462;SDS011;1243;54.298;10.172;2023-03-01T04:24:32;24.80;;;10.55;;
2462;SDS011;1243;54.298;10.172;2023-03-01T04:26:58;12.32;;;8.93;;
2462;SDS011;1243;54.298;10.172;2023-03-01T04:29:24;11.87;;;8.97;;
2462;SDS011;1243;54.298;10.172;2023-03-01T04:31:50;15.83;;;8.90;;
2462;SDS011;1243;54.298;10.172;2023-03-01T04:34:15;20.40;;;8.70;;
2462;SDS011;1243;54.298;10.172;2023-03-01T04:36:41;17.43;;;8.30;;
2462;SDS011;1243;54.298;10.172;2023-03-01T04:39:07;11.57;;;7.67;;
2462;SDS011;1243;54.298;10.172;2023-03-01T04:41:37;13.00;;;7.57;;
2462;SDS011;1243;54.298;10.172;2023-03-01T04:44:04;20.40;;;7.90;;
2462;SDS011;1243;54.298;10.172;2023-03-01T04:46:31;24.65;;;9.02;;
2462;SDS011;1243;54.298;10.172;2023-03-01T04:48:57;26.23;;;8.38;;
2462;SDS011;1243;54.298;10.172;2023-03-01T04:51:22;10.07;;;7.67;;
2462;SDS011;1243;54.298;10.172;2023-03-01T04:53:48;17.43;;;9.17;;
2462;SDS011;1243;54.298;10.172;2023-03-01T04:56:14;16.60;;;8.45;;
2462;SDS011;1243;54.298;10.172;2023-03-01T04:58:43;14.00;;;9.43;;
2462;SDS011;1243;54.298;10.172;2023-03-01T05:01:10;13.23;;;8.65;;
2462;SDS011;1243;54.298;10.172;2023-03-01T05:03:43;11.43;;;7.75;;
2462;SDS011;1243;54.298;10.172;2023-03-01T05:06:10;16.65;;;8.85;;
2462;SDS011;1243;54.298;10.172;2023-03-01T05:08:37;16.33;;;9.02;;
2462;SDS011;1243;54.298;10.172;2023-03-01T05:11:03;22.13;;;7.63;;
2462;SDS011;1243;54.298;10.172;2023-03-01T05:13:30;13.38;;;8.75;;
2462;SDS011;1243;54.298;10.172;2023-03-01T05:15:58;21.50;;;9.43;;
2462;SDS011;1243;54.298;10.172;2023-03-01T05:18:27;28.30;;;8.80;;
2462;SDS011;1243;54.298;10.172;2023-03-01T05:20:55;16.10;;;9.48;;
2462;SDS011;1243;54.298;10.172;2023-03-01T05:23:29;18.20;;;8.55;;
2462;SDS011;1243;54.298;10.172;2023-03-01T05:25:58;24.00;;;9.95;;
2462;SDS011;1243;54.298;10.172;2023-03-01T05:28:26;18.45;;;9.60;;
2462;SDS011;1243;54.298;10.172;2023-03-01T05:30:53;20.13;;;7.85;;
2462;SDS011;1243;54.298;10.172;2023-03-01T05:33:19;11.48;;;8.40;;
2462;SDS011;1243;54.298;10.172;2023-03-01T05:35:46;14.80;;;9.80;;
2462;SDS011;1243;54.298;10.172;2023-03-01T05:38:13;14.90;;;9.02;;
2462;SDS011;1243;54.298;10.172;2023-03-01T05:40:41;21.02;;;8.60;;
2462;SDS011;1243;54.298;10.172;2023-03-01T05:43:08;14.10;;;8.48;;
2462;SDS011;1243;54.298;10.172;2023-03-01T05:45:36;19.20;;;8.75;;
2462;SDS011;1243;54.298;10.172;2023-03-01T05:48:03;11.30;;;7.70;;
2462;SDS011;1243;54.298;10.172;2023-03-01T05:50:31;21.15;;;10.65;;
2462;SDS011;1243;54.298;10.172;2023-03-01T05:53:00;19.25;;;8.43;;
2462;SDS011;1243;54.298;10.172;2023-03-01T05:55:28;20.52;;;7.93;;
2462;SDS011;1243;54.298;10.172;2023-03-01T05:57:55;12.55;;;7.80;;
2462;SDS011;1243;54.298;10.172;2023-03-01T06:00:24;18.27;;;8.75;;
2462;SDS011;1243;54.298;10.172;2023-03-01T06:02:50;20.77;;;10.10;;
2462;SDS011;1243;54.298;10.172;2023-03-01T06:05:16;13.23;;;9.02;;
2462;SDS011;1243;54.298;10.172;2023-03-01T06:07:42;27.15;;;10.18;;
2462;SDS011;1243;54.298;10.172;2023-03-01T06:10:09;12.80;;;9.25;;
2462;SDS011;1243;54.298;10.172;2023-03-01T06:12:36;13.88;;;9.00;;
2462;SDS011;1243;54.298;10.172;2023-03-01T06:15:04;21.17;;;8.75;;
2462;SDS011;1243;54.298;10.172;2023-03-01T06:17:34;14.77;;;8.93;;
2462;SDS011;1243;54.298;10.172;2023-03-01T06:20:03;19.60;;;9.05;;
2462;SDS011;1243;54.298;10.172;2023-03-01T06:22:30;12.27;;;8.73;;
2462;SDS011;1243;54.298;10.172;2023-03-01T06:24:55;16.00;;;10.37;;
2462;SDS011;1243;54.298;10.172;2023-03-01T06:27:21;10.03;;;7.87;;
2462;SDS011;1243;54.298;10.172;2023-03-01T06:29:47;13.10;;;8.50;;
2462;SDS011;1243;54.298;10.172;2023-03-01T06:32:13;14.23;;;7.80;;
2462;SDS011;1243;54.298;10.172;2023-03-01T06:34:39;11.70;;;8.73;;
2462;SDS011;1243;54.298;10.172;2023-03-01T06:37:05;23.57;;;8.30;;
2462;SDS011;1243;54.298;10.172;2023-03-01T06:39:32;12.90;;;8.05;;
2462;SDS011;1243;54.298;10.172;2023-03-01T06:41:58;22.08;;;9.07;;
2462;SDS011;1243;54.298;10.172;2023-03-01T06:44:25;20.13;;;8.48;;
2462;SDS011;1243;54.298;10.172;2023-03-01T06:46:50;18.20;;;8.37;;
2462;SDS011;1243;54.298;10.172;2023-03-01T06:49:16;9.83;;;8.20;;
2462;SDS011;1243;54.298;10.172;2023-03-01T06:51:43;10.50;;;8.18;;
2462;SDS011;1243;54.298;10.172;2023-03-01T06:54:09;15.13;;;8.23;;
2462;SDS011;1243;54.298;10.172;2023-03-01T06:56:35;12.63;;;7.63;;
2462;SDS011;1243;54.298;10.172;2023-03-01T06:59:01;10.23;;;7.00;;
2462;SDS011;1243;54.298;10.172;2023-03-01T07:01:27;12.70;;;8.10;;
2462;SDS011;1243;54.298;10.172;2023-03-01T07:03:54;19.38;;;7.78;;
2462;SDS011;1243;54.298;10.172;2023-03-01T07:06:20;8.33;;;6.90;;
2462;SDS011;1243;54.298;10.172;2023-03-01T07:08:46;10.88;;;8.60;;
2462;SDS011;1243;54.298;10.172;2023-03-01T07:11:12;13.30;;;6.77;;
2462;SDS011;1243;54.298;10.172;2023-03-01T07:13:38;12.87;;;7.40;;
2462;SDS011;1243;54.298;10.172;2023-03-01T07:16:04;13.90;;;6.10;;
2462;SDS011;1243;54.298;10.172;2023-03-01T07:18:30;19.13;;;7.20;;
2462;SDS011;1243;54.298;10.172;2023-03-01T07:20:56;13.17;;;7.63;;
2462;SDS011;1243;54.298;10.172;2023-03-01T07:23:21;14.00;;;8.27;;
2462;SDS011;1243;54.298;10.172;2023-03-01T07:25:51;13.03;;;7.80;;
2462;SDS011;1243;54.298;10.172;2023-03-01T07:28:18;11.43;;;7.70;;
2462;SDS011;1243;54.298;10.172;2023-03-01T07:30:43;8.43;;;6.90;;
2462;SDS011;1243;54.298;10.172;2023-03-01T07:33:09;9.63;;;6.27;;
2462;SDS011;1243;54.298;10.172;2023-03-01T07:35:35;8.30;;;5.97;;
2462;SDS011;1243;54.298;10.172;2023-03-01T07:38:01;11.30;;;7.67;;
2462;SDS011;1243;54.298;10.172;2023-03-01T07:40:26;6.70;;;6.00;;
2462;SDS011;1243;54.298;10.172;2023-03-01T07:42:56;7.97;;;6.70;;
2462;SDS011;1243;54.298;10.172;2023-03-01T07:45:22;9.63;;;6.43;;
2462;SDS011;1243;54.298;10.172;2023-03-01T07:47:50;12.55;;;7.45;;
2462;SDS011;1243;54.298;10.172;2023-03-01T07:50:17;13.70;;;6.63;;
2462;SDS011;1243;54.298;10.172;2023-03-01T07:52:44;17.95;;;6.90;;
2462;SDS011;1243;54.298;10.172;2023-03-01T07:55:11;14.73;;;7.40;;
2462;SDS011;1243;54.298;10.172;2023-03-01T07:57:37;15.03;;;7.37;;
2462;SDS011;1243;54.298;10.172;2023-03-01T08:00:03;18.50;;;8.07;;
2462;SDS011;1243;54.298;10.172;2023-03-01T08:02:30;12.10;;;7.43;;
2462;SDS011;1243;54.298;10.172;2023-03-01T08:04:56;10.03;;;7.40;;
2462;SDS011;1243;54.298;10.172;2023-03-01T08:07:22;14.43;;;9.37;;
2462;SDS011;1243;54.298;10.172;2023-03-01T08:09:47;12.87;;;8.40;;
2462;SDS011;1243;54.298;10.172;2023-03-01T08:12:13;12.10;;;8.20;;
2462;SDS011;1243;54.298;10.172;2023-03-01T08:14:41;24.40;;;9.60;;
2462;SDS011;1243;54.298;10.172;2023-03-01T08:17:06;14.10;;;8.90;;
2462;SDS011;1243;54.298;10.172;2023-03-01T08:19:32;16.30;;;9.97;;
2462;SDS011;1243;54.298;10.172;2023-03-01T08:21:59;19.27;;;9.83;;
2462;SDS011;1243;54.298;10.172;2023-03-01T08:24:27;13.80;;;8.37;;
2462;SDS011;1243;54.298;10.172;2023-03-01T08:26:53;12.13;;;9.27;;
2462;SDS011;1243;54.298;10.172;2023-03-01T08:29:19;9.47;;;7.50;;
2462;SDS011;1243;54.298;10.172;2023-03-01T08:31:45;14.13;;;9.00;;
2462;SDS011;1243;54.298;10.172;2023-03-01T08:34:13;14.00;;;9.53;;
2462;SDS011;1243;54.298;10.172;2023-03-01T08:36:42;15.97;;;9.77;;
2462;SDS011;1243;54.298;10.172;2023-03-01T08:39:10;15.33;;;9.60;;
2462;SDS011;1243;54.298;10.172;2023-03-01T08:41:37;10.73;;;9.07;;
2462;SDS011;1243;54.298;10.172;2023-03-01T08:44:03;12.73;;;9.70;;
2462;SDS011;1243;54.298;10.172;2023-03-01T08:46:30;13.20;;;9.70;;
2462;SDS011;1243;54.298;10.172;2023-03-01T08:49:04;12.90;;;10.27;;
2462;SDS011;1243;54.298;10.172;2023-03-01T08:51:31;13.33;;;8.80;;
2462;SDS011;1243;54.298;10.172;2023-03-01T08:54:01;9.73;;;8.30;;
2462;SDS011;1243;54.298;10.172;2023-03-01T08:56:28;14.10;;;9.30;;
2462;SDS011;1243;54.298;10.172;2023-03-01T08:58:54;9.03;;;8.07;;
2462;SDS011;1243;54.298;10.172;2023-03-01T09:01:20;14.17;;;9.80;;
2462;SDS011;1243;54.298;10.172;2023-03-01T09:03:45;11.60;;;8.20;;
2462;SDS011;1243;54.298;10.172;2023-03-01T09:06:11;14.50;;;9.97;;
2462;SDS011;1243;54.298;10.172;2023-03-01T09:08:39;23.47;;;8.70;;
2462;SDS011;1243;54.298;10.172;2023-03-01T09:11:10;13.60;;;8.33;;
2462;SDS011;1243;54.298;10.172;2023-03-01T09:13:37;15.27;;;9.87;;
2462;SDS011;1243;54.298;10.172;2023-03-01T09:16:04;12.93;;;9.20;;
2462;SDS011;1243;54.298;10.172;2023-03-01T09:18:31;12.13;;;10.13;;
2462;SDS011;1243;54.298;10.172;2023-03-01T09:21:05;11.27;;;9.50;;
2462;SDS011;1243;54.298;10.172;2023-03-01T09:23:36;11.93;;;10.23;;
2462;SDS011;1243;54.298;10.172;2023-03-01T09:26:07;24.87;;;9.60;;
2462;SDS011;1243;54.298;10.172;2023-03-01T09:28:35;13.00;;;10.10;;
2462;SDS011;1243;54.298;10.172;2023-03-01T09:31:02;13.17;;;9.93;;
2462;SDS011;1243;54.298;10.172;2023-03-01T09:33:29;25.13;;;9.93;;
2462;SDS011;1243;54.298;10.172;2023-03-01T09:35:56;18.77;;;9.87;;
2462;SDS011;1243;54.298;10.172;2023-03-01T09:38:26;14.77;;;9.60;;
2462;SDS011;1243;54.298;10.172;2023-03-01T09:40:52;14.00;;;9.63;;
2462;SDS011;1243;54.298;10.172;2023-03-01T09:43:20;14.70;;;9.60;;
2462;SDS011;1243;54.298;10.172;2023-03-01T09:46:11;16.80;;;11.40;;
2462;SDS011;1243;54.298;10.172;2023-03-01T09:48:42;12.10;;;9.77;;
2462;SDS011;1243;54.298;10.172;2023-03-01T09:51:19;15.47;;;11.40;;
2462;SDS011;1243;54.298;10.172;2023-03-01T09:53:52;13.93;;;9.43;;
2462;SDS011;1243;54.298;10.172;2023-03-01T09:56:22;14.00;;;10.00;;
2462;SDS011;1243;54.298;10.172;2023-03-01T09:58:58;18.57;;;9.80;;
2462;SDS011;1243;54.298;10.172;2023-03-01T10:09:35;15.90;;;10.63;;
2462;SDS011;1243;54.298;10.172;2023-03-01T10:12:04;13.80;;;11.20;;
2462;SDS011;1243;54.298;10.172;2023-03-01T10:17:12;17.33;;;12.10;;
2462;SDS011;1243;54.298;10.172;2023-03-01T10:19:49;18.30;;;12.13;;
2462;SDS011;1243;54.298;10.172;2023-03-01T10:22:22;16.67;;;12.10;;
2462;SDS011;1243;54.298;10.172;2023-03-01T10:24:59;12.73;;;10.13;;
2462;SDS011;1243;54.298;10.172;2023-03-01T10:27:36;14.60;;;10.50;;
2462;SDS011;1243;54.298;10.172;2023-03-01T10:32:45;15.67;;;10.47;;
2462;SDS011;1243;54.298;10.172;2023-03-01T10:37:56;17.77;;;10.07;;
2462;SDS011;1243;54.298;10.172;2023-03-01T10:40:34;22.77;;;13.37;;
2462;SDS011;1243;54.298;10.172;2023-03-01T10:43:14;17.30;;;12.93;;
2462;SDS011;1243;54.298;10.172;2023-03-01T10:45:40;21.47;;;13.97;;
2462;SDS011;1243;54.298;10.172;2023-03-01T10:48:15;20.77;;;14.00;;
2462;SDS011;1243;54.298;10.172;2023-03-01T10:53:27;22.05;;;13.30;;
2462;SDS011;1243;54.298;10.172;2023-03-01T10:56:06;24.40;;;13.87;;
2462;SDS011;1243;54.298;10.172;2023-03-01T10:58:34;19.40;;;12.47;;
2462;SDS011;1243;54.298;10.172;2023-03-01T11:01:05;17.17;;;12.47;;
2462;SDS011;1243;54.298;10.172;2023-03-01T11:03:36;17.93;;;12.03;;
2462;SDS011;1243;54.298;10.172;2023-03-01T11:08:48;21.30;;;12.93;;
2462;SDS011;1243;54.298;10.172;2023-03-01T11:14:12;20.00;;;12.23;;
2462;SDS011;1243;54.298;10.172;2023-03-01T11:16:58;20.40;;;13.90;;
2462;SDS011;1243;54.298;10.172;2023-03-01T11:19:26;16.37;;;11.50;;
2462;SDS011;1243;54.298;10.172;2023-03-01T11:21:54;17.70;;;13.30;;
2462;SDS011;1243;54.298;10.172;2023-03-01T11:24:34;17.60;;;11.93;;
2462;SDS011;1243;54.298;10.172;2023-03-01T11:30:07;23.30;;;12.50;;
2462;SDS011;1243;54.298;10.172;2023-03-01T11:33:01;17.20;;;13.13;;
2462;SDS011;1243;54.298;10.172;2023-03-01T11:35:28;12.43;;;10.60;;
2462;SDS011;1243;54.298;10.172;2023-03-01T11:40:35;18.37;;;11.20;;
2462;SDS011;1243;54.298;10.172;2023-03-01T11:43:14;14.33;;;10.53;;
2462;SDS011;1243;54.298;10.172;2023-03-01T11:45:50;14.93;;;10.30;;
2462;SDS011;1243;54.298;10.172;2023-03-01T11:48:45;16.47;;;11.20;;
2462;SDS011;1243;54.298;10.172;2023-03-01T11:51:31;13.17;;;10.97;;
2462;SDS011;1243;54.298;10.172;2023-03-01T11:54:09;15.37;;;10.20;;
2462;SDS011;1243;54.298;10.172;2023-03-01T11:56:49;10.83;;;9.10;;
2462;SDS011;1243;54.298;10.172;2023-03-01T11:59:39;12.90;;;9.83;;
2462;SDS011;1243;54.298;10.172;2023-03-01T12:04:59;14.07;;;9.73;;
2462;SDS011;1243;54.298;10.172;2023-03-01T12:07:52;11.27;;;8.83;;
2462;SDS011;1243;54.298;10.172;2023-03-01T12:10:28;11.67;;;9.50;;
2462;SDS011;1243;54.298;10.172;2023-03-01T12:13:13;13.83;;;8.70;;
2462;SDS011;1243;54.298;10.172;2023-03-01T12:18:37;11.40;;;9.87;;
2462;SDS011;1243;54.298;10.172;2023-03-01T12:33:10;12.30;;;9.70;;
2462;SDS011;1243;54.298;10.172;2023-03-01T12:35:48;12.50;;;9.67;;
2462;SDS011;1243;54.298;10.172;2023-03-01T12:38:32;12.40;;;10.60;;
2462;SDS011;1243;54.298;10.172;2023-03-01T12:51:51;14.57;;;10.00;;
2462;SDS011;1243;54.298;10.172;2023-03-01T12:54:39;11.07;;;9.37;;
2462;SDS011;1243;54.298;10.172;2023-03-01T12:57:12;9.40;;;8.40;;
2462;SDS011;1243;54.298;10.172;2023-03-01T13:05:10;10.20;;;7.97;;
2462;SDS011;1243;54.298;10.172;2023-03-01T13:08:01;9.67;;;8.67;;
2462;SDS011;1243;54.298;10.172;2023-03-01T13:10:40;11.17;;;7.70;;
2462;SDS011;1243;54.298;10.172;2023-03-01T13:15:47;9.00;;;7.77;;
2462;SDS011;1243;54.298;10.172;2023-03-01T13:23:23;10.90;;;8.90;;
2462;SDS011;1243;54.298;10.172;2023-03-01T13:31:09;11.90;;;8.77;;
2462;SDS011;1243;54.298;10.172;2023-03-01T13:33:55;10.70;;;8.50;;
2462;SDS011;1243;54.298;10.172;2023-03-01T13:46:50;9.77;;;8.57;;
2462;SDS011;1243;54.298;10.172;2023-03-01T13:49:26;12.20;;;9.53;;
2462;SDS011;1243;54.298;10.172;2023-03-01T13:51:55;13.47;;;9.60;;
2462;SDS011;1243;54.298;10.172;2023-03-01T13:54:29;11.17;;;8.87;;
2462;SDS011;1243;54.298;10.172;2023-03-01T13:56:56;11.17;;;8.80;;
2462;SDS011;1243;54.298;10.172;2023-03-01T13:59:24;10.17;;;8.00;;
2462;SDS011;1243;54.298;10.172;2023-03-01T14:01:58;12.37;;;10.10;;
2462;SDS011;1243;54.298;10.172;2023-03-01T14:04:29;10.93;;;8.40;;
2462;SDS011;1243;54.298;10.172;2023-03-01T14:09:42;10.30;;;8.83;;
2462;SDS011;1243;54.298;10.172;2023-03-01T14:17:32;12.90;;;9.87;;
2462;SDS011;1243;54.298;10.172;2023-03-01T14:20:21;16.20;;;11.37;;
2462;SDS011;1243;54.298;10.172;2023-03-01T14:22:52;18.00;;;10.90;;
2462;SDS011;1243;54.298;10.172;2023-03-01T14:25:31;12.70;;;9.30;;
2462;SDS011;1243;54.298;10.172;2023-03-01T14:28:03;18.43;;;10.70;;
2462;SDS011;1243;54.298;10.172;2023-03-01T14:30:40;17.90;;;12.03;;
2462;SDS011;1243;54.298;10.172;2023-03-01T14:33:25;16.50;;;11.80;;
2462;SDS011;1243;54.298;10.172;2023-03-01T14:35:52;16.33;;;11.33;;
2462;SDS011;1243;54.298;10.172;2023-03-01T14:38:33;20.80;;;11.87;;
2462;SDS011;1243;54.298;10.172;2023-03-01T14:41:13;12.83;;;9.43;;
2462;SDS011;1243;54.298;10.172;2023-03-01T14:43:41;16.33;;;11.03;;
2462;SDS011;1243;54.298;10.172;2023-03-01T14:46:20;13.70;;;9.97;;
2462;SDS011;1243;54.298;10.172;2023-03-01T14:48:53;16.17;;;10.07;;
2462;SDS011;1243;54.298;10.172;2023-03-01T14:51:21;11.50;;;9.73;;
2462;SDS011;1243;54.298;10.172;2023-03-01T14:53:47;16.47;;;9.40;;
2462;SDS011;1243;54.298;10.172;2023-03-01T14:56:15;13.27;;;9.20;;
2462;SDS011;1243;54.298;10.172;2023-03-01T14:58:44;16.63;;;9.57;;
2462;SDS011;1243;54.298;10.172;2023-03-01T15:01:13;18.27;;;10.90;;
2462;SDS011;1243;54.298;10.172;2023-03-01T15:03:47;15.30;;;8.80;;
2462;SDS011;1243;54.298;10.172;2023-03-01T15:06:15;18.60;;;10.73;;
2462;SDS011;1243;54.298;10.172;2023-03-01T15:08:45;17.20;;;9.63;;
2462;SDS011;1243;54.298;10.172;2023-03-01T15:11:18;12.43;;;8.83;;
2462;SDS011;1243;54.298;10.172;2023-03-01T15:13:47;16.37;;;10.07;;
2462;SDS011;1243;54.298;10.172;2023-03-01T15:16:15;18.20;;;10.03;;
2462;SDS011;1243;54.298;10.172;2023-03-01T15:18:51;16.63;;;10.77;;
2462;SDS011;1243;54.298;10.172;2023-03-01T15:21:21;13.80;;;10.13;;
2462;SDS011;1243;54.298;10.172;2023-03-01T15:29:32;18.83;;;11.30;;
2462;SDS011;1243;54.298;10.172;2023-03-01T15:33:15;15.33;;;9.90;;
2462;SDS011;1243;54.298;10.172;2023-03-01T15:34:55;18.83;;;10.10;;
2462;SDS011;1243;54.298;10.172;2023-03-01T15:40:25;14.43;;;9.60;;
2462;SDS011;1243;54.298;10.172;2023-03-01T15:42:59;15.57;;;9.93;;
2462;SDS011;1243;54.298;10.172;2023-03-01T15:45:27;17.23;;;10.13;;
2462;SDS011;1243;54.298;10.172;2023-03-01T15:50:26;21.47;;;11.03;;
2462;SDS011;1243;54.298;10.172;2023-03-01T15:52:54;16.17;;;10.00;;
2462;SDS011;1243;54.298;10.172;2023-03-01T15:55:23;21.13;;;11.60;;
2462;SDS011;1243;54.298;10.172;2023-03-01T15:57:58;19.27;;;11.13;;
2462;SDS011;1243;54.298;10.172;2023-03-01T16:00:29;20.67;;;12.13;;
2462;SDS011;1243;54.298;10.172;2023-03-01T16:02:55;17.30;;;10.63;;
2462;SDS011;1243;54.298;10.172;2023-03-01T16:05:25;13.40;;;9.40;;
2462;SDS011;1243;54.298;10.172;2023-03-01T16:07:56;16.10;;;9.63;;
2462;SDS011;1243;54.298;10.172;2023-03-01T16:10:21;15.47;;;9.13;;
2462;SDS011;1243;54.298;10.172;2023-03-01T16:12:47;15.60;;;9.63;;
2462;SDS011;1243;54.298;10.172;2023-03-01T16:15:18;10.33;;;8.40;;
2462;SDS011;1243;54.298;10.172;2023-03-01T16:17:52;13.17;;;8.90;;
2462;SDS011;1243;54.298;10.172;2023-03-01T16:20:18;17.03;;;9.00;;
2462;SDS011;1243;54.298;10.172;2023-03-01T16:22:45;13.90;;;9.57;;
2462;SDS011;1243;54.298;10.172;2023-03-01T16:25:11;11.07;;;8.30;;
2462;SDS011;1243;54.298;10.172;2023-03-01T16:27:41;16.10;;;9.80;;
2462;SDS011;1243;54.298;10.172;2023-03-01T16:30:08;13.40;;;8.50;;
2462;SDS011;1243;54.298;10.172;2023-03-01T16:32:39;18.53;;;9.20;;
2462;SDS011;1243;54.298;10.172;2023-03-01T16:35:09;15.43;;;9.67;;
2462;SDS011;1243;54.298;10.172;2023-03-01T16:37:36;14.07;;;9.70;;
2462;SDS011;1243;54.298;10.172;2023-03-01T16:40:03;15.47;;;10.17;;
2462;SDS011;1243;54.298;10.172;2023-03-01T16:42:33;19.30;;;9.87;;
2462;SDS011;1243;54.298;10.172;2023-03-01T16:44:59;15.03;;;10.73;;
2462;SDS011;1243;54.298;10.172;2023-03-01T16:47:26;14.00;;;10.00;;
2462;SDS011;1243;54.298;10.172;2023-03-01T16:49:52;13.77;;;10.40;;
2462;SDS011;1243;54.298;10.172;2023-03-01T16:52:19;16.77;;;11.13;;
2462;SDS011;1243;54.298;10.172;2023-03-01T16:54:45;21.30;;;11.40;;